www.cux-wetter.de
Wetterdaten: Woche 23.07.12 - 29.07.12 (KW30)
Datum Zeit Temp. A. Feuchte A. Luftdruck Regen Wind Richtung Sonnenschein Solar Taupunkt Windchill Windben
23.07.2012 00:00 16,4 C 78 % 1026,5 hPa 0,0 l/m 8,0 km/h (2 Bft) S-SW 0,00 h 0 W/m 12,5 C 15,5 C 8,0 km/h (2 Bft)
23.07.2012 01:00 16,3 C 77 % 1026,5 hPa 0,0 l/m 9,4 km/h (2 Bft) S-SW 0,00 h 0 W/m 12,2 C 14,8 C 9,4 km/h (2 Bft)
23.07.2012 02:00 16,3 C 74 % 1025,8 hPa 0,0 l/m 11,5 km/h (2 Bft) S-SW 0,00 h 0 W/m 11,6 C 14,0 C 11,5 km/h (2 Bft)
23.07.2012 03:00 15,8 C 73 % 1025,5 hPa 0,0 l/m 11,0 km/h (2 Bft) S-SW 0,00 h 0 W/m 10,9 C 13,6 C 11,0 km/h (2 Bft)
23.07.2012 04:00 15,1 C 73 % 1025,5 hPa 0,0 l/m 9,6 km/h (2 Bft) S-SW 0,00 h 0 W/m 10,3 C 13,5 C 9,6 km/h (2 Bft)
23.07.2012 05:00 14,6 C 74 % 1025,5 hPa 0,0 l/m 11,0 km/h (2 Bft) S-SW 0,00 h 0 W/m 10,0 C 12,3 C 11,0 km/h (2 Bft)
23.07.2012 06:00 14,6 C 74 % 1025,5 hPa 0,0 l/m 12,1 km/h (2 Bft) SW 0,00 h 0 W/m 10,0 C 11,7 C 12,1 km/h (2 Bft)
23.07.2012 07:00 15,1 C 74 % 1025,5 hPa 0,0 l/m 13,9 km/h (3 Bft) W-SW 0,00 h 0 W/m 10,5 C 11,7 C 13,9 km/h (3 Bft)
23.07.2012 08:00 16,0 C 72 % 1025,5 hPa 0,0 l/m 19,8 km/h (3 Bft) W 0,00 h 0 W/m 10,9 C 11,1 C 19,8 km/h (3 Bft)
23.07.2012 09:00 17,8 C 67 % 1025,5 hPa 0,0 l/m 22,3 km/h (4 Bft) W 0,00 h 0 W/m 11,4 C 13,0 C 22,3 km/h (4 Bft)
23.07.2012 10:00 19,4 C 65 % 1025,3 hPa 0,0 l/m 23,9 km/h (4 Bft) W 0,00 h 0 W/m 12,5 C 14,7 C 23,9 km/h (4 Bft)
23.07.2012 11:00 21,6 C 60 % 1025,5 hPa 0,0 l/m 25,7 km/h (4 Bft) W 0,00 h 0 W/m 13,4 C 17,5 C 25,7 km/h (4 Bft)
23.07.2012 12:00 23,5 C 56 % 1024,8 hPa 0,0 l/m 27,2 km/h (5 Bft) W 0,00 h 0 W/m 14,0 C 19,9 C 27,2 km/h (5 Bft)
23.07.2012 13:00 24,7 C 50 % 1024,5 hPa 0,0 l/m 27,5 km/h (5 Bft) W 0,00 h 0 W/m 13,6 C 21,6 C 27,5 km/h (5 Bft)
23.07.2012 14:00 25,5 C 46 % 1024,5 hPa 0,0 l/m 25,8 km/h (4 Bft) W 0,00 h 0 W/m 13,1 C 22,8 C 25,8 km/h (4 Bft)
23.07.2012 15:00 25,7 C 45 % 1024,3 hPa 0,0 l/m 23,8 km/h (4 Bft) W 0,00 h 0 W/m 12,8 C 23,3 C 23,8 km/h (4 Bft)
23.07.2012 16:00 25,7 C 44 % 1023,5 hPa 0,0 l/m 24,1 km/h (4 Bft) W 0,00 h 0 W/m 12,4 C 23,1 C 24,1 km/h (4 Bft)
23.07.2012 17:00 25,5 C 45 % 1023,5 hPa 0,0 l/m 20,5 km/h (4 Bft) W 0,00 h 0 W/m 12,5 C 23,3 C 20,5 km/h (4 Bft)
23.07.2012 18:00 24,9 C 46 % 1023,0 hPa 0,0 l/m 18,9 km/h (3 Bft) W 0,00 h 0 W/m 12,4 C 22,7 C 18,9 km/h (3 Bft)
23.07.2012 19:00 24,1 C 49 % 1022,5 hPa 0,0 l/m 12,4 km/h (2 Bft) W 0,00 h 0 W/m 12,7 C 22,6 C 12,4 km/h (2 Bft)
23.07.2012 20:00 23,0 C 55 % 1022,5 hPa 0,0 l/m 7,5 km/h (2 Bft) SW 0,00 h 0 W/m 13,4 C 22,6 C 7,5 km/h (2 Bft)
23.07.2012 21:00 21,5 C 60 % 1022,5 hPa 0,0 l/m 2,1 km/h (1 Bft) S 0,00 h 0 W/m 13,4 C 21,5 C 2,1 km/h (1 Bft)
23.07.2012 22:00 20,2 C 64 % 1022,5 hPa 0,0 l/m 2,3 km/h (1 Bft) S 0,00 h 0 W/m 13,1 C 20,2 C 2,3 km/h (1 Bft)
23.07.2012 23:00 19,0 C 68 % 1022,5 hPa 0,0 l/m 2,3 km/h (1 Bft) S 0,00 h 0 W/m 12,8 C 19,0 C 2,3 km/h (1 Bft)
24.07.2012 00:00 18,0 C 71 % 1022,5 hPa 0,0 l/m 1,1 km/h (0 Bft) S 0,00 h 0 W/m 12,6 C 18,0 C 1,1 km/h (0 Bft)
24.07.2012 01:00 17,6 C 73 % 1022,1 hPa 0,0 l/m 5,7 km/h (2 Bft) S 0,00 h 0 W/m 12,7 C 17,4 C 5,7 km/h (2 Bft)
24.07.2012 02:00 17,2 C 75 % 1021,5 hPa 0,0 l/m 7,4 km/h (2 Bft) S 0,00 h 0 W/m 12,7 C 16,7 C 7,4 km/h (2 Bft)
24.07.2012 03:00 16,8 C 76 % 1021,5 hPa 0,0 l/m 6,4 km/h (2 Bft) S-SO 0,00 h 0 W/m 12,4 C 16,7 C 6,4 km/h (2 Bft)
24.07.2012 04:00 16,3 C 74 % 1021,5 hPa 0,0 l/m 2,7 km/h (1 Bft) N 0,00 h 0 W/m 11,7 C 15,8 C 2,7 km/h (1 Bft)
24.07.2012 05:00 15,8 C 75 % 1021,5 hPa 0,0 l/m 0,5 km/h (0 Bft) S-SO 0,00 h 0 W/m 11,4 C 15,8 C 0,5 km/h (0 Bft)
24.07.2012 06:00 15,4 C 77 % 1021,5 hPa 0,0 l/m 4,2 km/h (1 Bft) S-SO 0,00 h 0 W/m 11,3 C 15,1 C 4,2 km/h (1 Bft)
24.07.2012 07:00 15,8 C 77 % 1021,5 hPa 0,0 l/m 6,7 km/h (2 Bft) S-SO 0,00 h 0 W/m 11,7 C 15,5 C 6,7 km/h (2 Bft)
24.07.2012 08:00 16,6 C 77 % 1021,5 hPa 0,0 l/m 6,8 km/h (2 Bft) S 0,00 h 0 W/m 12,5 C 16,0 C 6,8 km/h (2 Bft)
24.07.2012 09:00 18,0 C 77 % 1021,3 hPa 0,0 l/m 7,1 km/h (2 Bft) S 0,00 h 0 W/m 14,0 C 17,6 C 7,1 km/h (2 Bft)
24.07.2012 10:00 20,5 C 72 % 1020,5 hPa 0,0 l/m 9,8 km/h (2 Bft) S 0,00 h 0 W/m 15,2 C 19,3 C 9,8 km/h (2 Bft)
24.07.2012 11:00 24,1 C 60 % 1020,5 hPa 0,0 l/m 10,1 km/h (2 Bft) S-SW 0,00 h 0 W/m 15,8 C 23,2 C 10,1 km/h (2 Bft)
24.07.2012 12:00 26,4 C 52 % 1020,3 hPa 0,0 l/m 12,8 km/h (3 Bft) S-SO 0,00 h 0 W/m 15,8 C 25,3 C 12,8 km/h (3 Bft)
24.07.2012 13:00 27,8 C 48 % 1019,5 hPa 0,0 l/m 12,0 km/h (2 Bft) S-SW 0,00 h 0 W/m 15,5 C 27,0 C 12,0 km/h (2 Bft)
24.07.2012 14:00 28,4 C 46 % 1019,5 hPa 0,0 l/m 12,5 km/h (2 Bft) S-SW 0,00 h 0 W/m 15,6 C 27,7 C 12,5 km/h (2 Bft)
24.07.2012 15:00 28,7 C 45 % 1018,5 hPa 0,0 l/m 12,5 km/h (2 Bft) S-SW 0,00 h 0 W/m 15,7 C 28,0 C 12,5 km/h (2 Bft)
24.07.2012 16:00 28,5 C 45 % 1018,3 hPa 0,0 l/m 12,3 km/h (2 Bft) O-SO 0,00 h 0 W/m 15,4 C 27,8 C 12,3 km/h (2 Bft)
24.07.2012 17:00 27,9 C 46 % 1017,5 hPa 0,0 l/m 9,8 km/h (2 Bft) O 0,00 h 0 W/m 15,1 C 27,4 C 9,8 km/h (2 Bft)
24.07.2012 18:00 27,2 C 48 % 1017,5 hPa 0,0 l/m 6,8 km/h (2 Bft) O 0,00 h 0 W/m 15,1 C 27,1 C 6,8 km/h (2 Bft)
24.07.2012 19:00 25,1 C 55 % 1016,5 hPa 0,0 l/m 1,7 km/h (1 Bft) NO 0,00 h 0 W/m 15,4 C 25,1 C 1,7 km/h (1 Bft)
24.07.2012 20:00 23,2 C 64 % 1016,5 hPa 0,0 l/m 0,2 km/h (0 Bft) N 0,00 h 0 W/m 15,8 C 23,2 C 0,2 km/h (0 Bft)
24.07.2012 21:00 22,1 C 67 % 1016,5 hPa 0,0 l/m 0,0 km/h (0 Bft) N 0,00 h 0 W/m 15,6 C 22,1 C 0,0 km/h (0 Bft)
24.07.2012 22:00 21,1 C 69 % 1016,5 hPa 0,0 l/m 0,0 km/h (0 Bft) N 0,00 h 0 W/m 15,3 C 21,1 C 0,0 km/h (0 Bft)
24.07.2012 23:00 20,6 C 70 % 1016,5 hPa 0,0 l/m 3,3 km/h (1 Bft) O 0,00 h 0 W/m 15,0 C 20,6 C 3,3 km/h (1 Bft)
25.07.2012 00:00 19,9 C 72 % 1016,5 hPa 0,0 l/m 2,5 km/h (1 Bft) SO 0,00 h 0 W/m 14,6 C 19,9 C 2,5 km/h (1 Bft)
25.07.2012 01:00 19,2 C 73 % 1016,0 hPa 0,0 l/m 0,3 km/h (0 Bft) O-SO 0,00 h 0 W/m 14,3 C 19,2 C 0,3 km/h (0 Bft)
25.07.2012 02:00 18,6 C 75 % 1015,5 hPa 0,0 l/m 5,5 km/h (2 Bft) O-SO 0,00 h 0 W/m 14,0 C 18,6 C 5,5 km/h (2 Bft)
25.07.2012 03:00 18,3 C 76 % 1015,5 hPa 0,0 l/m 6,6 km/h (2 Bft) O-SO 0,00 h 0 W/m 14,0 C 18,0 C 6,6 km/h (2 Bft)
25.07.2012 04:00 18,0 C 79 % 1015,5 hPa 0,0 l/m 1,8 km/h (1 Bft) S-SO 0,00 h 0 W/m 14,2 C 18,0 C 1,8 km/h (1 Bft)
25.07.2012 05:00 17,8 C 81 % 1014,5 hPa 0,0 l/m 1,4 km/h (1 Bft) O-SO 0,00 h 0 W/m 14,4 C 17,8 C 1,4 km/h (1 Bft)
25.07.2012 06:00 17,8 C 82 % 1014,5 hPa 0,0 l/m 4,3 km/h (1 Bft) O 0,00 h 0 W/m 14,7 C 17,8 C 4,3 km/h (1 Bft)
25.07.2012 07:00 18,1 C 83 % 1014,5 hPa 0,0 l/m 4,6 km/h (1 Bft) O-SO 0,00 h 0 W/m 15,1 C 18,1 C 4,6 km/h (1 Bft)
25.07.2012 08:00 18,6 C 82 % 1014,5 hPa 0,0 l/m 5,5 km/h (2 Bft) SO 0,00 h 0 W/m 15,4 C 18,6 C 5,5 km/h (2 Bft)
25.07.2012 09:00 19,3 C 79 % 1014,5 hPa 0,0 l/m 6,7 km/h (2 Bft) O-SO 0,00 h 0 W/m 15,6 C 19,0 C 6,7 km/h (2 Bft)
25.07.2012 10:00 21,2 C 75 % 1014,5 hPa 0,0 l/m 3,4 km/h (1 Bft) O-NO 0,00 h 0 W/m 16,6 C 21,2 C 3,4 km/h (1 Bft)
25.07.2012 11:00 24,0 C 66 % 1014,5 hPa 0,0 l/m 3,0 km/h (1 Bft) O-NO 0,00 h 0 W/m 17,3 C 24,0 C 3,0 km/h (1 Bft)
25.07.2012 12:00 26,3 C 66 % 1013,8 hPa 0,0 l/m 3,9 km/h (1 Bft) O-NO 0,00 h 0 W/m 19,3 C 26,3 C 3,9 km/h (1 Bft)
25.07.2012 13:00 28,3 C 61 % 1013,5 hPa 0,0 l/m 6,8 km/h (2 Bft) NO 0,00 h 0 W/m 20,0 C 28,0 C 6,8 km/h (2 Bft)
25.07.2012 14:00 27,9 C 61 % 1013,5 hPa 0,0 l/m 4,9 km/h (1 Bft) NO 0,00 h 0 W/m 19,6 C 27,9 C 4,9 km/h (1 Bft)
25.07.2012 15:00 26,2 C 61 % 1013,5 hPa 0,0 l/m 14,5 km/h (3 Bft) NO 0,00 h 0 W/m 18,0 C 24,9 C 14,5 km/h (3 Bft)
25.07.2012 16:00 25,2 C 63 % 1013,5 hPa 0,0 l/m 19,0 km/h (3 Bft) O-NO 0,00 h 0 W/m 17,6 C 23,1 C 19,0 km/h (3 Bft)
25.07.2012 17:00 24,3 C 67 % 1013,5 hPa 0,0 l/m 23,2 km/h (4 Bft) NO 0,00 h 0 W/m 17,8 C 21,3 C 23,2 km/h (4 Bft)
25.07.2012 18:00 23,3 C 70 % 1014,3 hPa 0,0 l/m 23,2 km/h (4 Bft) O-NO 0,00 h 0 W/m 17,3 C 20,0 C 23,2 km/h (4 Bft)
25.07.2012 19:00 22,9 C 70 % 1014,3 hPa 0,0 l/m 16,0 km/h (3 Bft) NO 0,00 h 0 W/m 17,1 C 20,6 C 16,0 km/h (3 Bft)
25.07.2012 20:00 22,0 C 73 % 1014,5 hPa 0,0 l/m 15,1 km/h (3 Bft) O-NO 0,00 h 0 W/m 16,9 C 19,7 C 15,1 km/h (3 Bft)
25.07.2012 21:00 21,1 C 76 % 1014,8 hPa 0,0 l/m 16,8 km/h (3 Bft) NO 0,00 h 0 W/m 16,7 C 18,2 C 16,8 km/h (3 Bft)
25.07.2012 22:00 20,4 C 79 % 1015,5 hPa 0,0 l/m 16,3 km/h (3 Bft) NO 0,00 h 0 W/m 16,6 C 17,4 C 16,3 km/h (3 Bft)
25.07.2012 23:00 20,0 C 80 % 1015,5 hPa 0,0 l/m 15,4 km/h (3 Bft) NO 0,00 h 0 W/m 16,5 C 17,1 C 15,4 km/h (3 Bft)
26.07.2012 00:00 19,8 C 83 % 1015,5 hPa 0,0 l/m 13,1 km/h (3 Bft) N-NO 0,00 h 0 W/m 16,8 C 17,5 C 13,1 km/h (3 Bft)
26.07.2012 01:00 19,6 C 85 % 1015,5 hPa 0,0 l/m 13,0 km/h (3 Bft) N-NO 0,00 h 0 W/m 17,0 C 17,3 C 13,0 km/h (3 Bft)
26.07.2012 02:00 19,1 C 87 % 1015,5 hPa 0,0 l/m 16,1 km/h (3 Bft) N-NO 0,00 h 0 W/m 17,0 C 16,0 C 16,1 km/h (3 Bft)
26.07.2012 03:00 19,0 C 89 % 1015,5 hPa 0,0 l/m 17,3 km/h (3 Bft) N-NO 0,00 h 0 W/m 17,1 C 15,5 C 17,3 km/h (3 Bft)
26.07.2012 04:00 18,9 C 88 % 1015,5 hPa 0,0 l/m 16,9 km/h (3 Bft) NO 0,00 h 0 W/m 16,9 C 15,5 C 16,9 km/h (3 Bft)
26.07.2012 05:00 18,4 C 86 % 1016,3 hPa 0,0 l/m 16,2 km/h (3 Bft) NO 0,00 h 0 W/m 16,0 C 15,0 C 16,2 km/h (3 Bft)
26.07.2012 06:00 17,9 C 80 % 1016,5 hPa 0,0 l/m 18,7 km/h (3 Bft) NO 0,00 h 0 W/m 14,4 C 13,8 C 18,7 km/h (3 Bft)
26.07.2012 07:00 17,9 C 80 % 1017,5 hPa 0,0 l/m 21,0 km/h (4 Bft) NO 0,00 h 0 W/m 14,4 C 13,3 C 21,0 km/h (4 Bft)
26.07.2012 08:00 18,0 C 79 % 1017,5 hPa 0,0 l/m 18,8 km/h (3 Bft) NO 0,00 h 0 W/m 14,3 C 14,0 C 18,8 km/h (3 Bft)
26.07.2012 09:00 18,5 C 77 % 1017,5 hPa 0,0 l/m 18,3 km/h (3 Bft) N-NO 0,00 h 0 W/m 14,4 C 14,7 C 18,3 km/h (3 Bft)
26.07.2012 10:00 19,5 C 75 % 1017,5 hPa 0,0 l/m 20,0 km/h (4 Bft) NO 0,00 h 0 W/m 14,9 C 15,5 C 20,0 km/h (4 Bft)
26.07.2012 11:00 21,4 C 70 % 1018,3 hPa 0,0 l/m 20,4 km/h (4 Bft) NO 0,00 h 0 W/m 15,6 C 18,0 C 20,4 km/h (4 Bft)
26.07.2012 12:00 22,7 C 65 % 1018,5 hPa 0,0 l/m 22,3 km/h (4 Bft) NO 0,00 h 0 W/m 15,7 C 19,3 C 22,3 km/h (4 Bft)
26.07.2012 13:00 23,0 C 65 % 1018,5 hPa 0,0 l/m 25,4 km/h (4 Bft) NO 0,00 h 0 W/m 15,9 C 19,4 C 25,4 km/h (4 Bft)
26.07.2012 14:00 22,9 C 65 % 1017,8 hPa 0,0 l/m 25,3 km/h (4 Bft) NO 0,00 h 0 W/m 16,0 C 19,3 C 25,3 km/h (4 Bft)
26.07.2012 15:00 22,4 C 65 % 1018,5 hPa 0,0 l/m 25,7 km/h (4 Bft) NO 0,00 h 0 W/m 15,5 C 18,5 C 25,7 km/h (4 Bft)
26.07.2012 16:00 22,0 C 66 % 1018,5 hPa 0,0 l/m 23,5 km/h (4 Bft) N-NO 0,00 h 0 W/m 15,4 C 18,3 C 23,5 km/h (4 Bft)
26.07.2012 17:00 20,9 C 68 % 1018,5 hPa 0,0 l/m 23,8 km/h (4 Bft) NO 0,00 h 0 W/m 14,6 C 16,8 C 23,8 km/h (4 Bft)
26.07.2012 18:00 20,3 C 70 % 1017,5 hPa 0,0 l/m 22,8 km/h (4 Bft) NO 0,00 h 0 W/m 14,7 C 16,2 C 22,8 km/h (4 Bft)
26.07.2012 19:00 19,5 C 73 % 1017,5 hPa 0,0 l/m 22,4 km/h (4 Bft) N-NO 0,00 h 0 W/m 14,5 C 15,2 C 22,4 km/h (4 Bft)
26.07.2012 20:00 18,9 C 75 % 1017,5 hPa 0,0 l/m 18,2 km/h (3 Bft) NO 0,00 h 0 W/m 14,4 C 15,1 C 18,2 km/h (3 Bft)
26.07.2012 21:00 18,5 C 77 % 1017,5 hPa 0,0 l/m 13,3 km/h (3 Bft) NO 0,00 h 0 W/m 14,4 C 15,9 C 13,3 km/h (3 Bft)
26.07.2012 22:00 18,3 C 78 % 1017,5 hPa 0,0 l/m 13,8 km/h (3 Bft) NO 0,00 h 0 W/m 14,4 C 15,6 C 13,8 km/h (3 Bft)
26.07.2012 23:00 17,9 C 78 % 1017,5 hPa 0,0 l/m 12,3 km/h (2 Bft) NO 0,00 h 0 W/m 14,0 C 15,6 C 12,3 km/h (2 Bft)
27.07.2012 00:00 17,6 C 81 % 1017,5 hPa 0,0 l/m 14,4 km/h (3 Bft) NO 0,00 h 0 W/m 14,2 C 14,6 C 14,4 km/h (3 Bft)
27.07.2012 01:00 17,2 C 82 % 1017,5 hPa 0,0 l/m 8,9 km/h (2 Bft) NO 0,00 h 0 W/m 14,1 C 15,5 C 8,9 km/h (2 Bft)
27.07.2012 02:00 16,6 C 82 % 1016,8 hPa 0,0 l/m 1,9 km/h (1 Bft) NO 0,00 h 0 W/m 13,6 C 16,6 C 1,9 km/h (1 Bft)
27.07.2012 03:00 16,1 C 83 % 1016,5 hPa 0,0 l/m 2,0 km/h (1 Bft) N 0,00 h 0 W/m 13,2 C 15,9 C 2,0 km/h (1 Bft)
27.07.2012 04:00 15,7 C 83 % 1016,2 hPa 0,0 l/m 3,2 km/h (1 Bft) O-NO 0,00 h 0 W/m 12,8 C 15,7 C 3,2 km/h (1 Bft)
27.07.2012 05:00 15,4 C 84 % 1015,5 hPa 0,0 l/m 1,4 km/h (1 Bft) SO 0,00 h 0 W/m 12,7 C 15,4 C 1,4 km/h (1 Bft)
27.07.2012 06:00 15,6 C 85 % 1015,0 hPa 0,0 l/m 6,0 km/h (2 Bft) SO 0,00 h 0 W/m 13,1 C 15,3 C 6,0 km/h (2 Bft)
27.07.2012 07:00 16,4 C 88 % 1014,5 hPa 0,0 l/m 9,1 km/h (2 Bft) S-SO 0,00 h 0 W/m 14,3 C 15,1 C 9,1 km/h (2 Bft)
27.07.2012 08:00 17,2 C 88 % 1014,5 hPa 0,0 l/m 13,5 km/h (3 Bft) SO 0,00 h 0 W/m 15,2 C 14,4 C 13,5 km/h (3 Bft)
27.07.2012 09:00 18,2 C 87 % 1013,8 hPa 0,0 l/m 12,4 km/h (2 Bft) SO 0,00 h 0 W/m 16,0 C 15,8 C 12,4 km/h (2 Bft)
27.07.2012 10:00 20,3 C 83 % 1013,5 hPa 0,0 l/m 11,3 km/h (2 Bft) S-SO 0,00 h 0 W/m 17,4 C 18,6 C 11,3 km/h (2 Bft)
27.07.2012 11:00 23,5 C 75 % 1012,5 hPa 0,0 l/m 10,0 km/h (2 Bft) SO 0,00 h 0 W/m 18,9 C 22,6 C 10,0 km/h (2 Bft)
27.07.2012 12:00 25,9 C 68 % 1011,8 hPa 0,0 l/m 10,4 km/h (2 Bft) S-SO 0,00 h 0 W/m 19,5 C 25,1 C 10,4 km/h (2 Bft)
27.07.2012 13:00 27,6 C 63 % 1011,0 hPa 0,0 l/m 12,6 km/h (3 Bft) O-SO 0,00 h 0 W/m 19,8 C 26,8 C 12,6 km/h (3 Bft)
27.07.2012 14:00 28,1 C 61 % 1010,3 hPa 0,0 l/m 15,5 km/h (3 Bft) O-SO 0,00 h 0 W/m 19,8 C 27,0 C 15,5 km/h (3 Bft)
27.07.2012 15:00 28,6 C 61 % 1009,5 hPa 0,0 l/m 13,9 km/h (3 Bft) O-SO 0,00 h 0 W/m 20,2 C 27,8 C 13,9 km/h (3 Bft)
27.07.2012 16:00 28,6 C 61 % 1008,3 hPa 0,0 l/m 8,9 km/h (2 Bft) S-SO 0,00 h 0 W/m 20,3 C 28,3 C 8,9 km/h (2 Bft)
27.07.2012 17:00 28,1 C 62 % 1007,5 hPa 0,0 l/m 8,9 km/h (2 Bft) S-SO 0,00 h 0 W/m 20,2 C 27,7 C 8,9 km/h (2 Bft)
27.07.2012 18:00 27,9 C 63 % 1006,8 hPa 0,0 l/m 8,9 km/h (2 Bft) S-SO 0,00 h 0 W/m 20,1 C 27,5 C 8,9 km/h (2 Bft)
27.07.2012 19:00 26,4 C 66 % 1006,0 hPa 0,0 l/m 6,2 km/h (2 Bft) O-SO 0,00 h 0 W/m 19,6 C 26,3 C 6,2 km/h (2 Bft)
27.07.2012 20:00 25,2 C 68 % 1005,5 hPa 0,0 l/m 0,1 km/h (0 Bft) N 0,00 h 0 W/m 18,9 C 25,2 C 0,1 km/h (0 Bft)
27.07.2012 21:00 24,1 C 72 % 1005,5 hPa 0,0 l/m 11,1 km/h (2 Bft) NO 0,00 h 0 W/m 18,6 C 22,6 C 11,1 km/h (2 Bft)
27.07.2012 22:00 22,6 C 77 % 1005,5 hPa 0,0 l/m 21,4 km/h (4 Bft) NO 0,00 h 0 W/m 18,2 C 19,4 C 21,4 km/h (4 Bft)
27.07.2012 23:00 21,9 C 80 % 1005,5 hPa 0,0 l/m 20,7 km/h (4 Bft) NO 0,00 h 0 W/m 18,4 C 18,6 C 20,7 km/h (4 Bft)
28.07.2012 00:00 21,3 C 83 % 1004,5 hPa 0,0 l/m 13,3 km/h (3 Bft) N-NO 0,00 h 0 W/m 18,3 C 19,4 C 13,3 km/h (3 Bft)
28.07.2012 01:00 21,3 C 83 % 1004,5 hPa 0,0 l/m 7,0 km/h (2 Bft) N-NO 0,00 h 0 W/m 18,2 C 21,1 C 7,0 km/h (2 Bft)
28.07.2012 02:00 20,7 C 84 % 1004,8 hPa 0,0 l/m 7,0 km/h (2 Bft) N-NO 0,00 h 0 W/m 17,9 C 20,4 C 7,0 km/h (2 Bft)
28.07.2012 03:00 20,3 C 86 % 1004,5 hPa 0,0 l/m 7,0 km/h (2 Bft) N-NO 0,00 h 0 W/m 17,8 C 20,0 C 7,0 km/h (2 Bft)
28.07.2012 04:00 19,9 C 86 % 1004,3 hPa 0,0 l/m 7,0 km/h (2 Bft) N-NO 0,00 h 0 W/m 17,5 C 19,7 C 7,0 km/h (2 Bft)
28.07.2012 05:00 19,5 C 86 % 1003,8 hPa 0,0 l/m 7,0 km/h (2 Bft) N-NO 0,00 h 0 W/m 17,2 C 19,3 C 7,0 km/h (2 Bft)
28.07.2012 06:00 19,2 C 88 % 1003,5 hPa 0,0 l/m 7,0 km/h (2 Bft) N-NO 0,00 h 0 W/m 17,1 C 18,9 C 7,0 km/h (2 Bft)
28.07.2012 07:00 19,1 C 88 % 1003,0 hPa 0,0 l/m 7,0 km/h (2 Bft) N-NO 0,00 h 0 W/m 17,1 C 18,8 C 7,0 km/h (2 Bft)
28.07.2012 08:00 18,6 C 89 % 1003,3 hPa 3,0 l/m 14,1 km/h (3 Bft) N 0,00 h 0 W/m 16,7 C 16,2 C 14,1 km/h (3 Bft)
28.07.2012 09:00 17,7 C 90 % 1003,5 hPa 3,3 l/m 24,4 km/h (4 Bft) N 0,00 h 0 W/m 16,0 C 12,4 C 24,4 km/h (4 Bft)
28.07.2012 10:00 17,5 C 89 % 1004,3 hPa 1,2 l/m 23,0 km/h (4 Bft) N 0,00 h 0 W/m 15,7 C 12,4 C 23,0 km/h (4 Bft)
28.07.2012 11:00 17,4 C 88 % 1004,8 hPa 0,6 l/m 23,1 km/h (4 Bft) N 0,00 h 0 W/m 15,4 C 12,3 C 23,1 km/h (4 Bft)
28.07.2012 12:00 18,0 C 87 % 1005,5 hPa 0,3 l/m 19,2 km/h (3 Bft) N-NW 0,00 h 0 W/m 15,7 C 13,8 C 19,2 km/h (3 Bft)
28.07.2012 13:00 17,9 C 85 % 1006,8 hPa 0,0 l/m 18,5 km/h (3 Bft) N-NW 0,00 h 0 W/m 15,3 C 13,8 C 18,5 km/h (3 Bft)
28.07.2012 14:00 18,1 C 80 % 1007,3 hPa 0,0 l/m 15,3 km/h (3 Bft) N-NW 0,00 h 0 W/m 14,6 C 14,9 C 15,3 km/h (3 Bft)
28.07.2012 15:00 19,2 C 73 % 1007,5 hPa 0,0 l/m 18,5 km/h (3 Bft) N-NW 0,00 h 0 W/m 14,2 C 15,6 C 18,5 km/h (3 Bft)
28.07.2012 16:00 19,7 C 68 % 1008,1 hPa 0,0 l/m 17,8 km/h (3 Bft) N 0,00 h 0 W/m 13,7 C 16,3 C 17,8 km/h (3 Bft)
28.07.2012 17:00 19,7 C 66 % 1008,5 hPa 0,0 l/m 11,2 km/h (2 Bft) N-NO 0,00 h 0 W/m 13,2 C 17,9 C 11,2 km/h (2 Bft)
28.07.2012 18:00 19,2 C 65 % 1008,5 hPa 0,0 l/m 10,9 km/h (2 Bft) N 0,00 h 0 W/m 12,5 C 17,5 C 10,9 km/h (2 Bft)
28.07.2012 19:00 18,7 C 66 % 1008,8 hPa 0,0 l/m 9,0 km/h (2 Bft) N-NO 0,00 h 0 W/m 12,1 C 17,3 C 9,0 km/h (2 Bft)
28.07.2012 20:00 17,9 C 67 % 1009,0 hPa 0,0 l/m 11,8 km/h (2 Bft) N-NO 0,00 h 0 W/m 11,6 C 15,8 C 11,8 km/h (2 Bft)
28.07.2012 21:00 16,9 C 72 % 1009,5 hPa 0,0 l/m 3,3 km/h (1 Bft) N-NO 0,00 h 0 W/m 11,8 C 16,8 C 3,3 km/h (1 Bft)
28.07.2012 22:00 15,9 C 75 % 1009,5 hPa 0,0 l/m 0,1 km/h (0 Bft) N 0,00 h 0 W/m 11,5 C 15,9 C 0,1 km/h (0 Bft)
28.07.2012 23:00 15,4 C 77 % 1009,5 hPa 0,0 l/m 0,0 km/h (0 Bft) N 0,00 h 0 W/m 11,5 C 15,4 C 0,0 km/h (0 Bft)
29.07.2012 00:00 14,8 C 79 % 1009,5 hPa 0,0 l/m 0,0 km/h (0 Bft) SO 0,00 h 0 W/m 11,2 C 14,8 C 0,0 km/h (0 Bft)
29.07.2012 01:00 14,7 C 81 % 1009,5 hPa 0,0 l/m 1,9 km/h (1 Bft) O-SO 0,00 h 0 W/m 11,5 C 14,7 C 1,9 km/h (1 Bft)
29.07.2012 02:00 14,8 C 81 % 1008,5 hPa 0,0 l/m 0,1 km/h (0 Bft) O-SO 0,00 h 0 W/m 11,5 C 14,8 C 0,1 km/h (0 Bft)
29.07.2012 03:00 14,9 C 82 % 1008,5 hPa 0,0 l/m 4,7 km/h (1 Bft) S-SO 0,00 h 0 W/m 11,8 C 14,9 C 4,7 km/h (1 Bft)
29.07.2012 04:00 15,0 C 82 % 1008,5 hPa 0,0 l/m 0,2 km/h (0 Bft) N 0,00 h 0 W/m 12,0 C 15,0 C 0,2 km/h (0 Bft)
29.07.2012 05:00 15,1 C 84 % 1008,0 hPa 0,0 l/m 5,7 km/h (2 Bft) O 0,00 h 0 W/m 12,5 C 14,5 C 5,7 km/h (2 Bft)
29.07.2012 06:00 15,4 C 85 % 1007,5 hPa 0,0 l/m 13,4 km/h (3 Bft) SO 0,00 h 0 W/m 12,9 C 12,3 C 13,4 km/h (3 Bft)
29.07.2012 07:00 15,7 C 85 % 1007,7 hPa 0,0 l/m 11,7 km/h (2 Bft) SO 0,00 h 0 W/m 13,2 C 13,2 C 11,7 km/h (2 Bft)
29.07.2012 08:00 16,4 C 85 % 1007,5 hPa 0,0 l/m 11,9 km/h (2 Bft) S-SO 0,00 h 0 W/m 13,8 C 14,0 C 11,9 km/h (2 Bft)
29.07.2012 09:00 16,7 C 85 % 1007,5 hPa 0,0 l/m 18,3 km/h (3 Bft) S-SO 0,00 h 0 W/m 14,1 C 12,3 C 18,3 km/h (3 Bft)
29.07.2012 10:00 16,8 C 86 % 1007,5 hPa 0,3 l/m 12,5 km/h (2 Bft) S-SO 0,00 h 0 W/m 14,4 C 14,2 C 12,5 km/h (2 Bft)
29.07.2012 11:00 16,9 C 86 % 1007,5 hPa 0,0 l/m 13,4 km/h (3 Bft) S 0,00 h 0 W/m 14,6 C 14,0 C 13,4 km/h (3 Bft)
29.07.2012 12:00 17,3 C 85 % 1007,8 hPa 0,0 l/m 12,3 km/h (2 Bft) S-SW 0,00 h 0 W/m 14,7 C 14,8 C 12,3 km/h (2 Bft)
29.07.2012 13:00 17,6 C 85 % 1008,5 hPa 0,0 l/m 4,3 km/h (1 Bft) S-SO 0,00 h 0 W/m 15,0 C 17,6 C 4,3 km/h (1 Bft)
29.07.2012 14:00 17,8 C 84 % 1008,5 hPa 0,0 l/m 4,1 km/h (1 Bft) N-NO 0,00 h 0 W/m 15,1 C 17,7 C 4,1 km/h (1 Bft)
29.07.2012 15:00 18,7 C 83 % 1008,5 hPa 0,0 l/m 4,4 km/h (1 Bft) N 0,00 h 0 W/m 15,6 C 18,7 C 4,4 km/h (1 Bft)
29.07.2012 16:00 18,7 C 79 % 1009,5 hPa 0,0 l/m 20,7 km/h (4 Bft) NW 0,00 h 0 W/m 14,9 C 14,4 C 20,7 km/h (4 Bft)
29.07.2012 17:00 19,2 C 74 % 1009,5 hPa 0,0 l/m 31,3 km/h (5 Bft) N-NW 0,00 h 0 W/m 14,5 C 13,4 C 31,3 km/h (5 Bft)
29.07.2012 18:00 18,8 C 72 % 1010,5 hPa 0,0 l/m 28,9 km/h (5 Bft) NW 0,00 h 0 W/m 13,7 C 13,2 C 28,9 km/h (5 Bft)
29.07.2012 19:00 18,0 C 72 % 1010,8 hPa 0,0 l/m 26,6 km/h (4 Bft) NW 0,00 h 0 W/m 12,9 C 12,5 C 26,6 km/h (4 Bft)
29.07.2012 20:00 17,5 C 71 % 1011,5 hPa 0,0 l/m 18,8 km/h (3 Bft) N-NW 0,00 h 0 W/m 12,2 C 13,3 C 18,8 km/h (3 Bft)
29.07.2012 21:00 17,0 C 71 % 1012,3 hPa 0,0 l/m 11,8 km/h (2 Bft) N-NW 0,00 h 0 W/m 11,7 C 14,7 C 11,8 km/h (2 Bft)
29.07.2012 22:00 16,7 C 74 % 1012,5 hPa 0,0 l/m 7,1 km/h (2 Bft) NW 0,00 h 0 W/m 12,0 C 16,0 C 7,1 km/h (2 Bft)
29.07.2012 23:00 15,6 C 77 % 1012,5 hPa 0,0 l/m 0,0 km/h (0 Bft) N 0,00 h 0 W/m 11,5 C 15,6 C 0,0 km/h (0 Bft)
Min-Datum _ 23.07.12 23.07.12 28.07.12 - 23.07.12 - - - 23.07.12 23.07.12 23.07.12
_ Min-Zeit 05:45 16:30 07:00 - 22:15 - - - 05:45 08:00 22:15
Minimum _ 14,4 C 43 % 1002,5 hPa - 0,0 km/h (0 Bft) - - - 9,8 C 10,3 C 0,0 km/h (0 Bft)
Max-Datum _ 27.07.12 28.07.12 23.07.12 28.07.12 29.07.12 - 23.07.12 23.07.12 25.07.12 25.07.12 29.07.12
_ Max-Zeit 16:45 09:30 00:00 09:00 17:15 - 00:00 00:00 13:45 13:45 17:15
Maximum _ 28,9 C 90 % 1026,5 hPa 3,3 l/m 34,3 km/h
N-NW (5 Bft)
- 0,00 h 0 W/m 20,6 C 28,6 C 34,3 km/h
N-NW (5 Bft)
Durchschnitt _ 20,1 C 73 % 1014,7 hPa #8,7 l/m 11,8 km/h (2 Bft) NO #0 min. 0 W/m 14,8 C 18,3 C 11,8 km/h (2 Bft)
copyright by Holger Just